Time;durP1;ratioP1;P1;durP2;ratioP2;P2;SDS_P1;SDS_P2;PMS_P1;PMS_P2;Temp;Humidity;BMP_temperature;BMP_pressure;BME280_temperature;BME280_humidity;BME280_pressure;Samples;Min_cycle;Max_cycle;Signal;HPM_P1;HPM_P2
2023/01/17 00:00:05;;;;;;;1.97;1.03;;;4.40;99.90;;;;;;5094064;28;20024;-73
2023/01/17 00:02:31;;;;;;;2.00;1.10;;;4.40;99.90;;;;;;5093967;28;20062;-70
2023/01/17 00:10:27;;;;;;;1.40;0.90;;;4.40;99.90;;;;;;5111687;28;20118;-70
2023/01/17 00:12:54;;;;;;;3.07;1.13;;;4.30;99.90;;;;;;5094041;28;20023;-70
2023/01/17 00:15:21;;;;;;;1.67;1.30;;;4.30;99.90;;;;;;5093227;28;20059;-70
2023/01/17 00:17:48;;;;;;;2.40;0.97;;;4.20;99.90;;;;;;5111878;28;20039;-70
2023/01/17 00:26:01;;;;;;;1.97;1.00;;;4.10;99.90;;;;;;5112345;28;20427;-70
2023/01/17 00:26:26;;;;;;;1.73;0.70;;;4.10;99.90;;;;;;5111107;28;20073;-70
2023/01/17 01:35:48;;;;;;;2.73;1.03;;;3.70;99.90;;;;;;5115243;28;20088;-70
2023/01/17 01:38:14;;;;;;;3.57;0.90;;;3.70;99.90;;;;;;5096277;28;20023;-70
2023/01/17 01:40:49;;;;;;;1.77;1.00;;;3.70;99.90;;;;;;5097341;28;20058;-70
2023/01/17 01:43:17;;;;;;;3.07;1.00;;;3.70;99.90;;;;;;5096262;28;20024;-70
2023/01/17 01:45:52;;;;;;;1.60;0.90;;;3.70;99.90;;;;;;5096456;28;20089;-70
2023/01/17 01:48:26;;;;;;;2.10;1.00;;;3.70;99.90;;;;;;5096241;28;20051;-70
2023/01/17 01:50:52;;;;;;;1.67;1.20;;;3.70;99.90;;;;;;5096733;28;20016;-70
2023/01/17 01:53:20;;;;;;;3.07;1.17;;;3.70;99.90;;;;;;5096077;28;20440;-70
2023/01/17 01:55:49;;;;;;;2.03;0.93;;;3.70;99.90;;;;;;5096578;28;20036;-70
2023/01/17 01:58:21;;;;;;;2.53;1.23;;;3.70;99.90;;;;;;5095601;28;20029;-70
2023/01/17 02:00:46;;;;;;;3.45;1.02;;;3.70;99.90;;;;;;5096656;28;20411;-70
2023/01/17 02:03:29;;;;;;;1.83;0.93;;;3.70;99.90;;;;;;5095854;28;20030;-70
2023/01/17 02:05:58;;;;;;;2.70;1.20;;;3.70;99.90;;;;;;5096431;28;20532;-70
2023/01/17 02:08:24;;;;;;;2.00;0.90;;;3.70;99.90;;;;;;5095497;28;20026;-70
2023/01/17 02:10:50;;;;;;;3.17;0.83;;;3.80;99.90;;;;;;5096501;28;20028;-70
2023/01/17 02:13:18;;;;;;;2.10;0.97;;;3.80;99.90;;;;;;5095574;28;20106;-70
2023/01/17 02:15:51;;;;;;;2.80;1.20;;;3.80;99.90;;;;;;5096086;28;20035;-70
2023/01/17 02:18:35;;;;;;;2.77;1.20;;;3.80;99.90;;;;;;5095116;28;20073;-70
2023/01/17 02:21:26;;;;;;;3.70;1.30;;;3.80;99.90;;;;;;5096119;28;20027;-70
2023/01/17 02:24:09;;;;;;;3.97;1.17;;;3.90;99.90;;;;;;5051068;28;20035;-70
2023/01/17 02:26:59;;;;;;;2.87;0.90;;;3.90;99.90;;;;;;5113687;28;20099;-70
2023/01/17 02:29:36;;;;;;;1.63;1.07;;;3.90;99.90;;;;;;5113579;28;20020;-70
2023/01/17 02:32:17;;;;;;;1.80;1.00;;;3.90;99.90;;;;;;5114398;28;20067;-70
2023/01/17 02:35:15;;;;;;;2.37;1.10;;;3.90;99.90;;;;;;5095788;28;20084;-70
2023/01/17 02:38:12;;;;;;;4.73;0.80;;;3.90;99.90;;;;;;5095853;28;20085;-70
2023/01/17 02:40:46;;;;;;;2.20;0.90;;;3.90;99.90;;;;;;5049202;28;20067;-70
2023/01/17 02:43:14;;;;;;;2.07;1.20;;;3.90;99.90;;;;;;5095918;28;20096;-70
2023/01/17 02:45:40;;;;;;;1.37;0.80;;;3.90;99.90;;;;;;5095467;28;20034;-70
2023/01/17 02:48:09;;;;;;;2.60;1.07;;;3.90;99.90;;;;;;5095688;28;20020;-70
2023/01/17 02:51:13;;;;;;;1.50;1.00;;;3.90;99.90;;;;;;5095026;28;20020;-70
2023/01/17 02:54:09;;;;;;;2.87;1.17;;;3.90;99.90;;;;;;5113843;28;20471;-70
2023/01/17 02:56:49;;;;;;;1.47;1.00;;;3.90;99.90;;;;;;5112789;28;20054;-70
2023/01/17 02:59:52;;;;;;;1.57;0.80;;;3.80;99.90;;;;;;5094799;28;20023;-70
2023/01/17 03:02:29;;;;;;;2.30;0.90;;;3.90;99.90;;;;;;5043742;28;20028;-70
2023/01/17 03:05:09;;;;;;;1.90;1.00;;;3.90;99.90;;;;;;5095449;28;20019;-70
2023/01/17 03:07:36;;;;;;;1.67;0.80;;;3.90;99.90;;;;;;5094581;28;20375;-69
2023/01/17 03:10:04;;;;;;;3.53;1.00;;;3.90;99.90;;;;;;5094874;28;20058;-70
2023/01/17 03:12:32;;;;;;;1.83;0.80;;;3.90;99.90;;;;;;5094300;28;20027;-70
2023/01/17 03:14:58;;;;;;;1.17;0.90;;;3.90;99.90;;;;;;5113314;28;20035;-70
2023/01/17 03:17:28;;;;;;;2.33;1.00;;;3.90;99.90;;;;;;5094018;28;20016;-70
2023/01/17 03:19:54;;;;;;;4.37;1.00;;;3.90;99.90;;;;;;5095101;28;20483;-70
2023/01/17 03:22:20;;;;;;;1.23;0.90;;;3.90;99.90;;;;;;5094429;28;20020;-70
2023/01/17 03:24:45;;;;;;;1.97;0.87;;;3.90;99.90;;;;;;5094714;28;20510;-70
2023/01/17 03:27:11;;;;;;;2.53;0.90;;;4.00;99.90;;;;;;5095014;28;20031;-70
2023/01/17 03:29:36;;;;;;;3.53;1.10;;;4.00;99.90;;;;;;5094341;28;20020;-70
2023/01/17 03:32:02;;;;;;;1.63;0.90;;;4.00;99.90;;;;;;5112885;28;20392;-70
2023/01/17 03:34:28;;;;;;;1.67;1.00;;;4.00;99.90;;;;;;5094256;28;20031;-70
2023/01/17 03:36:53;;;;;;;1.17;0.87;;;3.90;99.90;;;;;;5095052;28;20474;-70
2023/01/17 03:39:19;;;;;;;1.50;0.70;;;4.00;99.90;;;;;;5093947;28;20073;-71
2023/01/17 03:41:44;;;;;;;1.47;0.70;;;4.00;99.90;;;;;;5113071;28;20066;-70
2023/01/17 03:44:10;;;;;;;2.87;0.60;;;4.00;99.90;;;;;;5113024;28;20038;-70
2023/01/17 03:46:36;;;;;;;1.10;0.70;;;4.00;99.90;;;;;;5112433;28;20062;-71
2023/01/17 03:49:01;;;;;;;1.33;0.90;;;4.00;99.90;;;;;;5094735;28;20452;-71
2023/01/17 03:51:27;;;;;;;1.43;0.80;;;4.00;99.90;;;;;;5093841;28;20020;-70
2023/01/17 03:53:52;;;;;;;1.20;0.80;;;4.00;99.90;;;;;;5094401;28;20028;-71
2023/01/17 03:56:18;;;;;;;1.23;0.80;;;4.00;99.90;;;;;;5093516;28;20459;-71
2023/01/17 03:58:44;;;;;;;0.77;0.70;;;4.00;99.90;;;;;;5112869;28;20072;-71
2023/01/17 04:01:10;;;;;;;1.30;0.87;;;4.00;99.90;;;;;;5094598;28;20051;-71
2023/01/17 04:03:36;;;;;;;2.10;0.80;;;4.00;99.90;;;;;;5093991;28;20052;-71
2023/01/17 04:06:02;;;;;;;1.23;0.50;;;4.00;99.90;;;;;;5094625;28;20051;-70
2023/01/17 04:08:28;;;;;;;1.47;0.90;;;4.00;99.90;;;;;;5112245;28;20448;-71
2023/01/17 04:10:53;;;;;;;2.03;0.80;;;3.90;99.90;;;;;;5112399;28;20477;-71
2023/01/17 04:13:19;;;;;;;1.43;0.70;;;3.90;99.90;;;;;;5112141;28;20034;-71
2023/01/17 04:15:47;;;;;;;2.50;0.83;;;3.90;99.90;;;;;;5094350;28;20034;-71
2023/01/17 04:18:15;;;;;;;1.20;0.60;;;3.80;99.90;;;;;;5094038;28;20055;-71
2023/01/17 04:20:40;;;;;;;1.00;0.70;;;3.80;99.90;;;;;;5112036;28;20027;-70
2023/01/17 04:23:06;;;;;;;0.90;0.60;;;3.80;99.90;;;;;;5097085;28;20530;-70
2023/01/17 04:25:32;;;;;;;0.77;0.60;;;3.70;99.90;;;;;;5097684;28;20035;-71
2023/01/17 04:27:59;;;;;;;0.80;0.60;;;3.70;99.90;;;;;;5116005;28;20024;-71
2023/01/17 04:30:26;;;;;;;1.37;0.77;;;3.70;99.90;;;;;;5097618;28;20031;-71
2023/01/17 04:32:52;;;;;;;2.70;0.50;;;3.70;99.90;;;;;;5097820;28;20023;-70
2023/01/17 04:35:17;;;;;;;0.60;0.50;;;3.70;99.90;;;;;;5097789;28;20419;-70
2023/01/17 04:37:43;;;;;;;0.60;0.53;;;3.70;99.90;;;;;;5096798;28;20031;-70
2023/01/17 04:40:10;;;;;;;2.20;0.57;;;3.70;99.90;;;;;;5097942;28;20067;-70
2023/01/17 04:42:35;;;;;;;0.90;0.60;;;3.70;99.90;;;;;;5115898;28;20059;-70
2023/01/17 04:45:01;;;;;;;0.70;0.50;;;3.70;99.90;;;;;;5115926;28;20063;-70
2023/01/17 04:47:27;;;;;;;0.80;0.60;;;3.80;99.90;;;;;;5115203;28;20027;-70
2023/01/17 04:49:52;;;;;;;0.70;0.60;;;3.80;99.90;;;;;;5097535;28;20080;-70
2023/01/17 04:52:19;;;;;;;2.67;0.60;;;3.80;99.90;;;;;;5097660;28;20027;-70
2023/01/17 04:54:48;;;;;;;0.60;0.47;;;3.80;99.90;;;;;;5096565;28;20045;-70
2023/01/17 04:57:15;;;;;;;1.13;0.70;;;3.80;99.90;;;;;;5115978;28;20062;-70
2023/01/17 04:59:41;;;;;;;1.10;0.70;;;3.80;99.90;;;;;;5115206;28;20153;-70
2023/01/17 05:02:07;;;;;;;2.17;0.80;;;3.90;99.90;;;;;;5115883;28;20093;-70
2023/01/17 05:04:32;;;;;;;0.67;0.67;;;3.90;99.90;;;;;;5096920;28;20031;-70
2023/01/17 05:06:58;;;;;;;2.37;0.83;;;3.90;99.90;;;;;;5097766;28;20019;-70
2023/01/17 05:09:23;;;;;;;1.00;0.67;;;3.90;99.90;;;;;;5115278;28;20419;-71
2023/01/17 05:11:49;;;;;;;2.13;0.80;;;3.80;99.90;;;;;;5097408;28;20469;-70
2023/01/17 05:14:15;;;;;;;5.50;1.77;;;3.80;99.90;;;;;;5115512;28;20105;-70
2023/01/17 05:16:40;;;;;;;1.30;0.90;;;3.80;99.90;;;;;;5096701;28;20488;-70
2023/01/17 05:19:06;;;;;;;2.50;1.00;;;3.80;99.90;;;;;;5093708;28;20084;-70
2023/01/17 05:21:31;;;;;;;4.77;1.50;;;3.80;99.90;;;;;;5093150;28;20056;-70
2023/01/17 05:23:57;;;;;;;2.93;1.10;;;3.80;99.90;;;;;;5094965;28;20028;-70
2023/01/17 05:26:23;;;;;;;3.87;1.03;;;3.80;99.90;;;;;;5093149;28;20062;-70
2023/01/17 05:28:49;;;;;;;3.10;1.50;;;3.80;99.90;;;;;;5093736;28;20449;-70
2023/01/17 05:31:15;;;;;;;3.80;1.27;;;3.80;99.90;;;;;;5093565;28;20540;-70
2023/01/17 05:33:41;;;;;;;2.00;1.00;;;3.80;99.90;;;;;;5091765;28;20105;-70
2023/01/17 05:36:07;;;;;;;1.83;0.90;;;3.70;99.90;;;;;;5093422;28;20142;-70
2023/01/17 05:38:32;;;;;;;1.67;0.80;;;3.70;99.90;;;;;;5092860;28;20032;-70
2023/01/17 05:40:59;;;;;;;1.40;0.97;;;3.70;99.90;;;;;;5094702;28;20434;-70
2023/01/17 05:43:25;;;;;;;2.33;1.33;;;3.70;99.90;;;;;;5094172;28;20039;-70
2023/01/17 05:45:51;;;;;;;2.90;1.60;;;3.60;99.90;;;;;;5093512;28;20389;-70
2023/01/17 05:48:16;;;;;;;2.07;1.17;;;3.70;99.90;;;;;;5093418;28;20078;-70
2023/01/17 05:50:42;;;;;;;1.50;1.20;;;3.70;99.90;;;;;;5092705;28;20024;-70
2023/01/17 05:53:15;;;;;;;1.57;1.00;;;3.80;99.90;;;;;;5094523;28;20420;-70
2023/01/17 05:55:41;;;;;;;1.40;1.00;;;3.80;99.90;;;;;;5092638;28;20056;-70
2023/01/17 05:58:16;;;;;;;2.33;0.90;;;3.80;99.90;;;;;;5093303;28;20034;-70
2023/01/17 06:00:42;;;;;;;1.27;0.90;;;3.80;99.90;;;;;;5094156;28;20031;-70
2023/01/17 06:03:08;;;;;;;2.63;1.13;;;3.90;99.90;;;;;;5092903;28;20024;-70
2023/01/17 06:05:33;;;;;;;3.20;1.40;;;3.90;99.90;;;;;;5093656;28;20411;-70
2023/01/17 06:07:59;;;;;;;1.57;1.17;;;4.00;99.90;;;;;;5092902;28;20391;-70
2023/01/17 06:10:25;;;;;;;4.93;1.20;;;4.00;99.90;;;;;;5093959;28;20476;-73
2023/01/17 06:13:00;;;;;;;4.00;1.30;;;4.00;99.90;;;;;;5092587;28;20024;-70
2023/01/17 06:15:26;;;;;;;2.40;1.27;;;4.00;99.90;;;;;;5093450;28;20036;-71
2023/01/17 06:17:52;;;;;;;2.97;1.50;;;4.00;99.90;;;;;;5092523;28;20048;-70
2023/01/17 06:20:17;;;;;;;3.73;1.30;;;4.00;99.90;;;;;;5092614;28;20020;-70
2023/01/17 06:22:43;;;;;;;1.83;1.37;;;4.00;99.90;;;;;;5091941;28;20039;-70
2023/01/17 06:25:09;;;;;;;2.70;1.40;;;4.00;99.90;;;;;;5092712;28;20028;-70
2023/01/17 06:27:34;;;;;;;3.57;1.50;;;4.00;99.90;;;;;;5091959;28;20548;-70
2023/01/17 06:30:00;;;;;;;3.67;1.10;;;3.90;99.90;;;;;;5093798;28;20061;-70
2023/01/17 06:32:26;;;;;;;1.67;1.10;;;3.90;99.90;;;;;;5093338;28;20024;-73
2023/01/17 06:34:52;;;;;;;1.87;1.00;;;3.90;99.90;;;;;;5092373;28;20507;-70
2023/01/17 06:37:17;;;;;;;3.20;1.20;;;3.90;99.90;;;;;;5093606;28;20441;-70
2023/01/17 06:39:43;;;;;;;1.07;0.90;;;3.90;99.90;;;;;;5092578;28;20073;-70
2023/01/17 06:42:08;;;;;;;4.90;1.23;;;3.90;99.90;;;;;;5093636;28;20107;-70
2023/01/17 06:44:34;;;;;;;1.43;1.00;;;3.90;99.90;;;;;;5091576;28;20030;-70
2023/01/17 06:47:00;;;;;;;1.40;1.10;;;3.80;99.90;;;;;;5092411;28;20470;-70
2023/01/17 06:49:25;;;;;;;3.07;1.10;;;3.90;99.90;;;;;;5092317;28;20115;-70
2023/01/17 06:51:51;;;;;;;2.63;1.20;;;3.90;99.90;;;;;;5091558;28;20031;-70
2023/01/17 06:54:18;;;;;;;1.93;1.13;;;3.80;99.90;;;;;;5091968;28;20521;-70
2023/01/17 06:56:43;;;;;;;1.50;1.00;;;3.80;99.90;;;;;;5091431;28;20028;-70
2023/01/17 06:59:09;;;;;;;1.37;1.10;;;3.80;99.90;;;;;;5091950;28;20477;-70
2023/01/17 07:01:34;;;;;;;3.10;1.20;;;3.80;99.90;;;;;;5091211;28;20035;-70
2023/01/17 07:04:00;;;;;;;1.27;1.17;;;3.80;99.90;;;;;;5093015;28;20024;-70
2023/01/17 07:06:27;;;;;;;1.23;1.13;;;3.80;99.90;;;;;;5092775;28;20062;-70
2023/01/17 07:08:54;;;;;;;2.47;1.50;;;3.80;99.90;;;;;;5091222;28;20032;-70
2023/01/17 07:11:20;;;;;;;2.43;1.00;;;3.80;99.90;;;;;;5091778;28;20038;-70
2023/01/17 07:13:45;;;;;;;1.70;1.20;;;3.80;99.90;;;;;;5092460;28;20020;-70
2023/01/17 07:16:11;;;;;;;2.83;1.23;;;3.80;99.90;;;;;;5091623;28;20169;-70
2023/01/17 07:18:36;;;;;;;2.20;1.20;;;3.80;99.90;;;;;;5090924;28;20484;-70
2023/01/17 07:21:02;;;;;;;4.13;1.10;;;3.80;99.90;;;;;;5091693;28;20461;-70
2023/01/17 07:23:28;;;;;;;2.97;1.30;;;3.80;99.90;;;;;;5092944;28;20471;-70
2023/01/17 07:25:55;;;;;;;3.00;1.70;;;3.80;99.90;;;;;;5092308;28;20035;-70
2023/01/17 07:28:22;;;;;;;3.73;1.80;;;3.90;99.90;;;;;;5091471;28;20377;-70
2023/01/17 07:30:48;;;;;;;5.13;2.90;;;3.80;99.90;;;;;;5090875;28;20028;-70
2023/01/17 07:33:13;;;;;;;8.07;2.90;;;3.90;99.90;;;;;;5091154;28;20450;-70
2023/01/17 07:35:40;;;;;;;4.43;2.67;;;3.90;99.90;;;;;;5092110;28;20036;-70
2023/01/17 07:38:10;;;;;;;5.67;2.87;;;3.90;99.90;;;;;;5091343;28;20034;-70
2023/01/17 07:40:36;;;;;;;4.03;1.97;;;3.90;99.90;;;;;;5092200;28;20021;-70
2023/01/17 07:43:02;;;;;;;4.53;2.50;;;3.90;99.90;;;;;;5090994;28;20024;-70
2023/01/17 07:45:28;;;;;;;4.27;1.90;;;3.90;99.90;;;;;;5091022;28;20123;-70
2023/01/17 07:47:57;;;;;;;4.03;1.97;;;3.90;99.90;;;;;;5090183;28;20645;-70
2023/01/17 07:50:22;;;;;;;3.83;2.20;;;3.90;99.90;;;;;;5091082;28;20067;-70
2023/01/17 07:52:49;;;;;;;3.47;1.60;;;4.00;99.90;;;;;;5090209;28;20056;-70
2023/01/17 07:55:14;;;;;;;2.27;1.50;;;3.90;99.90;;;;;;5091143;28;20036;-70
2023/01/17 07:57:40;;;;;;;2.67;1.27;;;3.90;99.90;;;;;;5093723;28;20073;-71
2023/01/17 08:00:08;;;;;;;2.83;1.40;;;4.00;99.90;;;;;;5095219;28;20119;-70
2023/01/17 08:02:33;;;;;;;2.47;1.50;;;4.00;99.90;;;;;;5094773;28;20477;-71
2023/01/17 08:04:59;;;;;;;2.40;1.20;;;4.00;99.90;;;;;;5095281;28;20099;-71
2023/01/17 08:07:24;;;;;;;2.77;1.10;;;4.00;99.90;;;;;;5096496;28;20066;-71
2023/01/17 08:09:50;;;;;;;4.80;1.30;;;4.00;99.90;;;;;;5094576;28;20028;-71
2023/01/17 08:12:16;;;;;;;2.87;1.27;;;4.00;99.90;;;;;;5096433;28;20418;-71
2023/01/17 08:14:42;;;;;;;2.00;1.20;;;4.00;99.90;;;;;;5095814;28;20036;-71
2023/01/17 08:17:15;;;;;;;3.47;1.43;;;4.00;99.90;;;;;;5095373;28;20377;-71
2023/01/17 08:19:41;;;;;;;1.73;1.13;;;4.00;99.90;;;;;;5081872;28;20019;-70
2023/01/17 08:22:07;;;;;;;4.67;1.20;;;4.00;99.90;;;;;;5086857;28;20027;-70
2023/01/17 08:24:33;;;;;;;2.43;1.27;;;4.00;99.90;;;;;;5092178;28;20043;-74
2023/01/17 08:26:59;;;;;;;1.73;1.00;;;4.00;99.90;;;;;;5115848;28;20112;-70
2023/01/17 08:29:24;;;;;;;2.13;1.30;;;4.10;99.90;;;;;;5115985;28;20453;-70
2023/01/17 08:31:50;;;;;;;0.87;0.80;;;4.10;99.90;;;;;;5115867;28;20023;-71
2023/01/17 08:34:16;;;;;;;3.03;1.07;;;4.10;99.90;;;;;;5116361;28;20035;-70
2023/01/17 08:36:42;;;;;;;3.23;1.13;;;4.10;99.90;;;;;;5096729;28;20457;-71
2023/01/17 08:39:09;;;;;;;2.83;1.10;;;4.10;99.90;;;;;;5115524;28;20023;-70
2023/01/17 08:41:35;;;;;;;3.47;1.10;;;4.10;99.90;;;;;;5115214;28;20453;-71
2023/01/17 08:44:01;;;;;;;3.13;0.90;;;4.20;99.90;;;;;;5097580;28;20027;-70
2023/01/17 08:46:27;;;;;;;3.80;1.23;;;4.20;99.90;;;;;;5097388;28;20019;-72
2023/01/17 08:48:57;;;;;;;1.97;1.37;;;4.20;99.90;;;;;;5088034;28;20313;-70
2023/01/17 08:51:25;;;;;;;1.70;1.23;;;4.30;99.90;;;;;;5095223;28;20073;-70
2023/01/17 08:53:52;;;;;;;2.97;1.30;;;4.30;99.90;;;;;;5115416;28;20033;-70
2023/01/17 08:56:18;;;;;;;2.63;1.20;;;4.30;99.90;;;;;;5089898;28;20036;-70
2023/01/17 08:58:44;;;;;;;4.13;1.30;;;4.40;99.90;;;;;;5095630;28;20030;-73
2023/01/17 09:01:09;;;;;;;1.40;0.90;;;4.40;99.90;;;;;;5106757;28;20020;-73
2023/01/17 09:03:35;;;;;;;2.13;1.30;;;4.50;99.90;;;;;;5083993;28;20368;-73
2023/01/17 09:06:09;;;;;;;2.27;1.13;;;4.60;99.90;;;;;;5107989;28;20020;-73
2023/01/17 09:08:34;;;;;;;3.10;1.10;;;4.60;99.90;;;;;;5103600;28;20110;-72
2023/01/17 09:11:04;;;;;;;2.53;1.23;;;4.60;99.90;;;;;;5093872;28;20161;-73
2023/01/17 09:13:30;;;;;;;3.57;1.40;;;4.70;99.90;;;;;;5097139;28;20019;-70
2023/01/17 09:15:56;;;;;;;5.13;1.20;;;4.70;99.90;;;;;;5096595;28;20031;-73
2023/01/17 09:18:23;;;;;;;3.10;1.67;;;4.80;99.90;;;;;;5088661;28;20190;-74
2023/01/17 09:20:48;;;;;;;5.07;1.50;;;4.80;99.90;;;;;;5093973;28;20034;-70
2023/01/17 09:23:14;;;;;;;2.10;1.20;;;4.90;99.90;;;;;;5090343;28;20032;-73
2023/01/17 09:25:43;;;;;;;3.67;1.40;;;4.90;99.90;;;;;;5092365;28;20020;-71
2023/01/17 09:28:09;;;;;;;3.17;1.20;;;5.00;99.90;;;;;;5092698;28;20012;-71
2023/01/17 09:30:35;;;;;;;1.60;1.13;;;5.00;99.90;;;;;;5092396;28;20020;-71
2023/01/17 09:33:00;;;;;;;1.90;1.00;;;5.00;99.90;;;;;;5094662;28;20028;-70
2023/01/17 09:35:26;;;;;;;3.43;1.00;;;5.10;99.90;;;;;;5092532;28;20026;-70
2023/01/17 09:37:52;;;;;;;1.87;1.20;;;5.10;99.90;;;;;;5091935;28;20024;-70
2023/01/17 09:40:21;;;;;;;2.37;1.53;;;5.20;99.90;;;;;;5093722;28;20028;-70
2023/01/17 09:42:52;;;;;;;4.33;1.20;;;5.30;99.90;;;;;;5088462;28;20025;-70
2023/01/17 09:45:19;;;;;;;2.43;1.23;;;5.30;99.90;;;;;;5089942;28;20028;-70
2023/01/17 09:47:49;;;;;;;2.87;1.20;;;5.40;99.90;;;;;;5091688;28;20298;-70
2023/01/17 09:50:21;;;;;;;4.33;1.20;;;5.40;99.90;;;;;;5080475;28;20024;-72
2023/01/17 09:52:47;;;;;;;1.73;0.80;;;5.50;99.90;;;;;;5093230;28;20095;-70
2023/01/17 09:55:14;;;;;;;1.70;1.17;;;5.50;99.90;;;;;;5092668;28;20119;-69
2023/01/17 09:57:54;;;;;;;3.20;1.03;;;5.50;99.90;;;;;;5092653;28;20028;-71
2023/01/17 10:00:40;;;;;;;2.30;1.03;;;5.60;99.90;;;;;;5093160;28;20021;-70
2023/01/17 10:03:23;;;;;;;2.83;1.30;;;5.60;99.90;;;;;;5085470;28;20035;-73
2023/01/17 10:06:10;;;;;;;2.93;1.00;;;5.60;99.90;;;;;;5092989;28;20062;-73
2023/01/17 10:08:54;;;;;;;2.07;1.20;;;5.60;99.90;;;;;;5091490;28;20047;-70
2023/01/17 10:11:44;;;;;;;2.43;0.90;;;5.60;99.90;;;;;;5093564;28;20027;-70
2023/01/17 10:14:41;;;;;;;2.00;0.90;;;5.50;99.90;;;;;;5081247;28;20077;-70
2023/01/17 10:17:31;;;;;;;2.27;0.80;;;5.60;99.90;;;;;;5091859;28;20449;-70
2023/01/17 10:20:34;;;;;;;1.83;0.97;;;5.60;99.90;;;;;;5091405;28;20027;-70
2023/01/17 10:23:06;;;;;;;3.53;1.17;;;5.60;99.90;;;;;;5094975;28;20457;-70
2023/01/17 10:25:47;;;;;;;1.75;0.90;;;5.70;99.90;;;;;;5113193;28;20061;-70
2023/01/17 10:28:22;;;;;;;2.50;0.90;;;5.80;99.90;;;;;;5094400;28;20039;-70
2023/01/17 10:30:50;;;;;;;1.07;0.70;;;5.90;99.90;;;;;;5094058;28;20380;-70
2023/01/17 10:33:27;;;;;;;4.47;1.13;;;5.90;99.90;;;;;;5094691;28;20081;-70
2023/01/17 10:36:02;;;;;;;1.53;0.87;;;5.90;99.90;;;;;;5079142;28;20119;-71
2023/01/17 10:38:35;;;;;;;2.60;0.80;;;5.90;99.90;;;;;;5092166;28;20031;-71
2023/01/17 10:41:09;;;;;;;1.87;0.80;;;6.00;99.90;;;;;;5113167;28;20107;-70
2023/01/17 10:44:17;;;;;;;2.70;0.60;;;6.00;99.90;;;;;;5094260;28;20026;-71
2023/01/17 10:47:26;;;;;;;3.03;0.80;;;6.00;99.90;;;;;;5088142;28;20439;-72
2023/01/17 10:49:54;;;;;;;1.90;0.70;;;6.00;99.90;;;;;;5089376;28;20080;-72
2023/01/17 10:52:31;;;;;;;1.33;0.90;;;6.00;99.90;;;;;;5094091;28;20036;-72
2023/01/17 10:55:11;;;;;;;2.37;0.67;;;6.00;99.90;;;;;;5093632;28;20035;-72
2023/01/17 10:57:36;;;;;;;1.83;0.70;;;6.00;99.90;;;;;;5111802;28;20098;-74
2023/01/17 11:00:16;;;;;;;3.97;1.23;;;5.90;99.90;;;;;;5111831;28;20023;-72
2023/01/17 11:02:46;;;;;;;1.43;0.70;;;5.90;99.90;;;;;;5101477;28;20020;-70
2023/01/17 11:05:19;;;;;;;4.30;0.47;;;5.80;99.90;;;;;;5103311;28;20028;-69
2023/01/17 11:08:04;;;;;;;0.83;0.60;;;5.90;99.90;;;;;;5086178;28;20020;-70
2023/01/17 11:10:49;;;;;;;2.13;0.70;;;6.00;99.90;;;;;;5101198;28;20473;-72
2023/01/17 11:13:31;;;;;;;3.00;0.70;;;6.10;99.90;;;;;;5105737;28;20655;-72
2023/01/17 11:16:07;;;;;;;1.23;0.82;;;6.20;99.90;;;;;;5082098;28;20127;-72
2023/01/17 11:18:38;;;;;;;0.87;0.50;;;6.30;99.90;;;;;;5078831;28;20098;-72
2023/01/17 11:21:14;;;;;;;1.17;0.70;;;6.40;99.90;;;;;;5088361;28;20116;-72
2023/01/17 11:23:42;;;;;;;1.23;0.80;;;6.50;99.90;;;;;;5089036;28;20338;-74
2023/01/17 11:26:19;;;;;;;1.33;0.80;;;6.60;99.90;;;;;;5090294;28;20032;-73
2023/01/17 11:28:45;;;;;;;1.57;0.90;;;6.60;99.90;;;;;;5090583;28;20020;-73
2023/01/17 11:31:30;;;;;;;1.10;0.70;;;6.60;99.90;;;;;;5090314;28;20138;-72
2023/01/17 11:34:14;;;;;;;1.80;0.70;;;6.60;99.90;;;;;;5075829;28;20431;-72
2023/01/17 11:36:39;;;;;;;1.80;0.90;;;6.60;99.90;;;;;;5091059;28;20499;-73
2023/01/17 11:39:17;;;;;;;3.97;1.30;;;6.60;99.90;;;;;;5090939;28;20032;-72
2023/01/17 11:41:44;;;;;;;2.37;0.90;;;6.70;99.90;;;;;;5071610;28;20075;-72
2023/01/17 11:44:22;;;;;;;0.90;0.50;;;6.70;99.90;;;;;;5078439;28;20028;-73
2023/01/17 11:47:06;;;;;;;2.47;0.60;;;6.80;99.90;;;;;;5091305;28;20058;-73
2023/01/17 11:49:32;;;;;;;0.87;0.70;;;6.80;99.90;;;;;;5080701;28;20032;-72
2023/01/17 11:51:57;;;;;;;1.53;0.60;;;6.80;99.90;;;;;;5090151;28;20024;-72
2023/01/17 11:54:37;;;;;;;1.70;0.80;;;6.90;99.90;;;;;;5091917;28;20062;-72
2023/01/17 11:57:05;;;;;;;3.23;1.03;;;6.90;99.90;;;;;;5090737;28;20037;-72
2023/01/17 11:59:36;;;;;;;2.13;0.80;;;6.90;99.90;;;;;;5092048;28;20026;-72
2023/01/17 12:02:04;;;;;;;0.93;0.67;;;7.00;99.90;;;;;;5090526;28;20035;-73
2023/01/17 12:04:44;;;;;;;2.67;0.70;;;7.00;99.90;;;;;;5090769;28;20047;-72
2023/01/17 12:07:34;;;;;;;2.67;0.90;;;7.20;99.90;;;;;;5089980;28;20051;-72
2023/01/17 12:10:14;;;;;;;1.30;0.87;;;7.30;99.90;;;;;;5078233;28;20063;-73
2023/01/17 12:19:05;;;;;;;2.25;0.95;;;7.80;99.90;;;;;;5101833;28;20408;-72
2023/01/17 12:22:01;;;;;;;2.40;1.20;;;7.90;99.90;;;;;;5093696;28;20035;-72
2023/01/17 12:25:17;;;;;;;2.85;0.80;;;7.90;99.90;;;;;;5112269;28;20054;-72
2023/01/17 12:27:47;;;;;;;1.30;0.68;;;7.90;99.90;;;;;;5093175;28;20024;-72
2023/01/17 12:30:37;;;;;;;2.25;0.60;;;8.10;99.90;;;;;;5112067;28;20467;-72
2023/01/17 12:33:18;;;;;;;2.50;0.63;;;8.30;99.90;;;;;;5093585;28;20032;-72
2023/01/17 12:36:00;;;;;;;0.95;0.57;;;8.40;99.90;;;;;;5095083;28;20023;-73
2023/01/17 12:38:38;;;;;;;2.78;0.63;;;8.60;99.90;;;;;;5093657;28;20498;-72
2023/01/17 12:41:25;;;;;;;1.52;0.60;;;8.70;99.90;;;;;;5111773;28;20106;-73
2023/01/17 12:43:56;;;;;;;1.73;0.45;;;8.90;99.20;;;;;;5080314;28;20414;-73
2023/01/17 12:46:37;;;;;;;0.67;0.40;;;9.20;97.90;;;;;;5097361;28;20122;-73
2023/01/17 12:49:27;;;;;;;1.25;0.60;;;9.10;94.60;;;;;;5087540;28;20275;-73
2023/01/17 12:52:03;;;;;;;2.05;0.70;;;9.10;95.40;;;;;;5100181;28;20024;-73
2023/01/17 12:54:38;;;;;;;1.35;0.60;;;9.20;96.10;;;;;;5097450;28;20032;-73
2023/01/17 12:57:12;;;;;;;1.75;0.90;;;9.10;96.90;;;;;;5097225;28;20361;-72
2023/01/17 13:00:03;;;;;;;2.50;0.80;;;8.80;98.10;;;;;;5096488;28;20031;-73
2023/01/17 13:02:52;;;;;;;2.05;0.52;;;8.50;98.40;;;;;;5115747;28;20060;-73
2023/01/17 13:05:31;;;;;;;0.73;0.60;;;8.20;98.70;;;;;;5111656;28;20049;-70
2023/01/17 13:08:18;;;;;;;2.88;0.68;;;8.00;99.20;;;;;;5095807;28;20092;-70
2023/01/17 13:10:56;;;;;;;1.88;0.47;;;7.80;99.70;;;;;;5114351;28;20024;-73
2023/01/17 13:13:27;;;;;;;1.70;0.60;;;7.70;99.60;;;;;;5115175;28;20053;-73
2023/01/17 13:16:41;;;;;;;2.40;0.70;;;7.50;99.10;;;;;;5114331;28;20499;-73
2023/01/17 13:19:21;;;;;;;1.60;0.43;;;7.40;99.30;;;;;;5077786;28;20080;-72
2023/01/17 13:21:49;;;;;;;1.95;0.80;;;7.30;99.00;;;;;;5082158;28;20381;-73
2023/01/17 13:24:30;;;;;;;1.03;0.40;;;7.30;99.90;;;;;;5105932;28;20052;-73
2023/01/17 13:27:13;;;;;;;1.23;0.60;;;7.20;99.60;;;;;;5107102;28;20035;-73
2023/01/17 13:30:11;;;;;;;2.03;0.40;;;7.20;99.20;;;;;;5079752;28;20051;-73
2023/01/17 13:33:00;;;;;;;0.50;0.30;;;7.10;98.50;;;;;;5060645;28;20359;-72
2023/01/17 13:35:56;;;;;;;1.47;0.30;;;7.10;98.00;;;;;;5109560;28;20156;-73
2023/01/17 13:38:58;;;;;;;3.90;0.55;;;7.00;97.50;;;;;;5102309;28;20461;-72
2023/01/17 13:41:49;;;;;;;1.70;0.40;;;7.00;97.20;;;;;;5090127;28;20032;-73
2023/01/17 13:44:20;;;;;;;1.40;0.37;;;7.00;97.10;;;;;;5101232;28;20024;-73
2023/01/17 13:47:16;;;;;;;2.47;0.50;;;7.00;97.00;;;;;;5099420;28;20024;-72
2023/01/17 13:49:52;;;;;;;1.43;0.60;;;7.00;96.30;;;;;;5090954;28;20088;-72
2023/01/17 13:52:18;;;;;;;1.70;0.50;;;6.90;96.90;;;;;;5104995;28;20020;-72
2023/01/17 13:54:52;;;;;;;1.53;0.50;;;6.80;96.60;;;;;;5090354;28;20046;-72
2023/01/17 13:57:31;;;;;;;1.83;0.90;;;6.80;96.60;;;;;;5104400;28;20020;-71
2023/01/17 14:00:26;;;;;;;2.43;0.50;;;6.80;97.30;;;;;;5105899;28;20034;-71
2023/01/17 14:02:52;;;;;;;2.30;0.53;;;6.80;97.40;;;;;;5101766;28;20027;-71
2023/01/17 14:05:22;;;;;;;1.97;0.57;;;6.80;97.50;;;;;;5104634;28;20020;-72
2023/01/17 14:07:58;;;;;;;5.33;0.80;;;6.80;97.70;;;;;;5105031;28;20380;-71
2023/01/17 14:10:36;;;;;;;2.33;0.80;;;6.70;98.10;;;;;;5107512;28;20446;-71
2023/01/17 14:13:04;;;;;;;0.97;0.60;;;6.70;98.30;;;;;;5098077;28;20058;-71
2023/01/17 14:15:33;;;;;;;2.50;0.73;;;6.70;98.20;;;;;;5099592;28;20085;-71
2023/01/17 14:18:03;;;;;;;2.17;0.70;;;6.70;98.40;;;;;;5104853;28;20131;-71
2023/01/17 14:20:36;;;;;;;1.67;0.60;;;6.70;98.20;;;;;;5095230;28;20028;-72
2023/01/17 14:23:13;;;;;;;1.30;0.60;;;6.60;99.10;;;;;;5094442;28;20020;-71
2023/01/17 14:25:40;;;;;;;1.57;0.77;;;6.60;98.60;;;;;;5092269;28;20034;-72
2023/01/17 14:28:22;;;;;;;1.10;0.80;;;6.60;99.10;;;;;;5094874;28;20070;-71
2023/01/17 14:30:53;;;;;;;;;;;6.60;99.00;;;;;;5095042;28;20114;-71
2023/01/17 14:33:39;;;;;;;1.57;0.70;;;6.60;99.00;;;;;;5113217;28;19904;-72
2023/01/17 14:36:13;;;;;;;1.07;0.77;;;6.60;98.90;;;;;;5113035;28;20027;-70
2023/01/17 14:38:42;;;;;;;3.27;0.77;;;6.50;99.30;;;;;;5094462;28;20027;-72
2023/01/17 14:41:23;;;;;;;2.33;0.80;;;6.50;99.60;;;;;;5095122;28;20024;-69
2023/01/17 14:43:50;;;;;;;2.70;0.70;;;6.50;99.90;;;;;;5085166;28;20081;-69